North Springfield, VT

6:29 AM EDT on July 23, 2016 (GMT -0400)
Hartness State | | Change Station

Elev 574 ft 43.34 °N, 72.52 °W | Updated 35 minutes ago

Clear
Clear
63 °F
Feels Like 63 °F
N
0
Wind Variable Wind from North

Today
High -- | Low -- °F
--% Chance of Precip.
Yesterday
High -- | Low -- °F
Precip. -- in
Pressure 29.79 in
Visibility 10.0 miles
Clouds Clear
Dew Point 60 °F
Humidity 90%
Rainfall 0.00 in
Snow Depth Not available.
5:31 AM 8:21 PM
Waning Gibbous, 86% visible
METAR KVSF 230954Z AUTO 00000KT 10SM CLR 17/16 A2980 RMK AO2 SLP087 T01720156 TSNO
Pressure 29.79 in
Visibility 10.0 miles
Clouds Clear
Dew Point 60 °F
Humidity 90%
Rainfall 0.00 in
Snow Depth Not available.
5:31 AM 8:21 PM
Waning Gibbous, 86% visible
METAR KVSF 230954Z AUTO 00000KT 10SM CLR 17/16 A2980 RMK AO2 SLP087 T01720156 TSNO

10-Day Weather Forecast

Almanac

Astronomy

Jul. 23, 2016 Rise Set
Actual Time
Civil Twilight
Nautical Twilight
Astronomical Twilight
Moon
Length of Visible Light
Length of Day
Tomorrow will be .
, % of the Moon is Illuminated

Today's Extremes

State Highs State Lows

Community

WunderPhotos

Upload Photos

1,926,791 photos uploaded!

WunderBlog® & News

Nearby

Air Quality

  Air Quality AQ Index Pollutant
Not available.

Snow Depth

Station Depth Elevation

Earthquake Activity

City Distance Mag. Time & Date
Minimum magnitude displayed is 2.5.

Coastal Water Temperatures

Place Temperature

Stations

Nearby Weather Stations

Station Location Temp. Windchill Dew Point Humidity Wind Precip. Elev Updated Type
                   

Watches & Warnings

There are currently no watches in effect.